Time;durP1;ratioP1;P1;durP2;ratioP2;P2;SDS_P1;SDS_P2;PMS_P1;PMS_P2;Temp;Humidity;BMP_temperature;BMP_pressure;BME280_temperature;BME280_humidity;BME280_pressure;Samples;Min_cycle;Max_cycle;Signal;HPM_P1;HPM_P2
2021/01/24 00:01:08;;;;;;;7.87;5.07;;;1.80;99.90;;;;;;5011358;28;20216;-65
2021/01/24 00:03:35;;;;;;;9.10;5.23;;;1.80;99.90;;;;;;5010504;28;20211;-64
2021/01/24 00:06:02;;;;;;;10.20;5.83;;;1.80;99.90;;;;;;5010605;28;20196;-64
2021/01/24 00:08:28;;;;;;;11.43;6.03;;;1.80;99.90;;;;;;5019097;28;20312;-63
2021/01/24 00:10:55;;;;;;;15.33;5.53;;;1.80;99.90;;;;;;5012683;28;20203;-65
2021/01/24 00:13:21;;;;;;;9.77;5.67;;;1.80;99.90;;;;;;5009626;28;20262;-66
2021/01/24 00:15:49;;;;;;;11.30;6.47;;;1.80;99.90;;;;;;5011617;28;20239;-66
2021/01/24 00:18:15;;;;;;;12.40;6.83;;;1.90;99.90;;;;;;5012295;28;20196;-64
2021/01/24 00:20:41;;;;;;;11.27;6.43;;;1.90;99.90;;;;;;5010991;28;20237;-67
2021/01/24 00:23:08;;;;;;;15.17;6.47;;;2.00;99.90;;;;;;5010567;28;20243;-64
2021/01/24 00:25:35;;;;;;;10.87;6.40;;;1.90;99.90;;;;;;5013288;28;20200;-64
2021/01/24 00:28:01;;;;;;;9.97;5.77;;;2.00;99.90;;;;;;5011443;28;20197;-64
2021/01/24 00:30:28;;;;;;;11.00;6.03;;;1.90;99.90;;;;;;5011757;28;20200;-62
2021/01/24 00:32:55;;;;;;;9.70;5.57;;;1.80;99.90;;;;;;5011462;28;20200;-68
2021/01/24 00:35:21;;;;;;;10.33;5.27;;;1.80;99.90;;;;;;5009389;28;20613;-68
2021/01/24 00:37:48;;;;;;;9.67;6.03;;;1.70;99.90;;;;;;5010541;28;20200;-69
2021/01/24 00:40:14;;;;;;;9.80;5.50;;;1.70;99.90;;;;;;5008556;28;20212;-68
2021/01/24 00:42:41;;;;;;;8.03;4.93;;;1.60;99.90;;;;;;5010543;28;20197;-69
2021/01/24 00:45:09;;;;;;;10.57;5.27;;;1.60;99.90;;;;;;5009396;28;22595;-69
2021/01/24 00:47:36;;;;;;;9.23;5.10;;;1.60;99.90;;;;;;5008974;28;20558;-69
2021/01/24 00:50:04;;;;;;;9.33;5.40;;;1.60;99.90;;;;;;5008495;28;20244;-68
2021/01/24 00:52:30;;;;;;;12.47;6.60;;;1.70;99.90;;;;;;5012369;28;20283;-65
2021/01/24 00:54:57;;;;;;;11.93;6.27;;;1.70;99.90;;;;;;5011453;28;20205;-64
2021/01/24 00:57:24;;;;;;;12.17;7.13;;;1.70;99.90;;;;;;5012161;28;20201;-69
2021/01/24 00:59:50;;;;;;;12.37;7.03;;;1.70;99.90;;;;;;5008281;28;20204;-67
2021/01/24 01:02:17;;;;;;;14.47;7.17;;;1.70;99.90;;;;;;5012349;28;20208;-64
2021/01/24 01:04:43;;;;;;;11.57;6.67;;;1.70;99.90;;;;;;5010456;28;20258;-65
2021/01/24 01:07:11;;;;;;;13.17;7.07;;;1.70;99.90;;;;;;5010757;28;20201;-66
2021/01/24 01:09:37;;;;;;;10.63;6.73;;;1.70;99.90;;;;;;5011383;28;20228;-67
2021/01/24 01:12:04;;;;;;;15.33;8.23;;;1.70;99.90;;;;;;5010900;28;20208;-67
2021/01/24 01:14:31;;;;;;;13.33;6.67;;;1.70;99.90;;;;;;5009637;28;20637;-69
2021/01/24 01:16:57;;;;;;;15.97;8.13;;;1.70;99.90;;;;;;5011376;28;20204;-64
2021/01/24 01:19:24;;;;;;;13.13;7.57;;;1.80;99.90;;;;;;5012740;28;20748;-68
2021/01/24 01:21:50;;;;;;;14.23;7.67;;;1.80;99.90;;;;;;5008913;28;20201;-68
2021/01/24 01:24:18;;;;;;;14.57;8.63;;;1.90;99.90;;;;;;5009667;28;20199;-64
2021/01/24 01:26:44;;;;;;;7.23;4.27;;;1.90;99.90;;;;;;5010696;28;20215;-71
2021/01/24 01:29:11;;;;;;;3.77;3.10;;;1.90;99.90;;;;;;5007749;28;20231;-66
2021/01/24 01:31:37;;;;;;;3.63;2.70;;;1.80;99.90;;;;;;5012642;28;20203;-67
2021/01/24 01:34:04;;;;;;;6.03;2.90;;;1.80;99.90;;;;;;5008571;28;20542;-72
2021/01/24 01:36:30;;;;;;;5.07;3.10;;;1.70;99.90;;;;;;5008321;28;20239;-68
2021/01/24 01:38:57;;;;;;;5.67;3.30;;;1.70;99.90;;;;;;5010821;28;20211;-63
2021/01/24 01:41:29;;;;;;;6.33;2.97;;;1.70;99.90;;;;;;5011212;28;20205;-66
2021/01/24 01:43:56;;;;;;;6.60;3.20;;;1.70;99.90;;;;;;5009063;28;20812;-66
2021/01/24 01:46:23;;;;;;;7.67;3.77;;;1.80;99.90;;;;;;5009873;28;20246;-68
2021/01/24 01:48:51;;;;;;;5.70;4.00;;;1.80;99.90;;;;;;5009551;28;20622;-69
2021/01/24 01:51:18;;;;;;;6.70;3.63;;;1.90;99.90;;;;;;5010617;28;20805;-65
2021/01/24 01:53:45;;;;;;;7.90;4.20;;;2.00;99.90;;;;;;5010354;28;20285;-64
2021/01/24 01:56:11;;;;;;;11.23;4.77;;;2.00;99.90;;;;;;5011838;28;20200;-65
2021/01/24 01:58:39;;;;;;;10.20;5.10;;;2.00;99.90;;;;;;5014715;28;20277;-65
2021/01/24 02:01:19;;;;;;;10.63;5.30;;;2.00;99.90;;;;;;5015897;28;20205;-67
2021/01/24 02:03:54;;;;;;;10.10;5.50;;;2.00;99.90;;;;;;5010576;28;20266;-68
2021/01/24 02:06:31;;;;;;;13.27;5.47;;;2.00;99.90;;;;;;5014357;28;20314;-62
2021/01/24 02:09:01;;;;;;;11.83;5.50;;;2.00;99.90;;;;;;5013947;28;20216;-62
2021/01/24 02:11:36;;;;;;;17.93;6.43;;;2.00;99.90;;;;;;5016955;28;20231;-63
2021/01/24 02:14:15;;;;;;;10.80;5.43;;;2.00;99.90;;;;;;5012223;28;20203;-67
2021/01/24 02:16:43;;;;;;;15.93;7.63;;;2.00;99.90;;;;;;5012133;28;21556;-62
2021/01/24 02:19:38;;;;;;;18.13;8.07;;;2.00;99.90;;;;;;5014969;28;20201;-64
2021/01/24 02:22:07;;;;;;;18.27;8.70;;;2.00;99.90;;;;;;5014611;28;20605;-65
2021/01/24 02:24:39;;;;;;;10.40;4.67;;;2.00;99.90;;;;;;5012401;28;20258;-62
2021/01/24 02:27:13;;;;;;;10.23;4.53;;;2.10;99.90;;;;;;5011238;28;20212;-66
2021/01/24 02:29:51;;;;;;;7.90;3.77;;;2.20;99.90;;;;;;5013001;28;20641;-62
2021/01/24 02:32:22;;;;;;;5.37;2.80;;;2.10;99.90;;;;;;5013300;28;20351;-64
2021/01/24 02:34:51;;;;;;;5.97;2.57;;;2.10;99.90;;;;;;5013055;28;20197;-64
2021/01/24 02:37:19;;;;;;;5.63;2.30;;;2.00;99.90;;;;;;5012499;28;20201;-63
2021/01/24 02:39:47;;;;;;;4.03;2.77;;;1.90;99.90;;;;;;5013570;28;20685;-64
2021/01/24 02:42:15;;;;;;;4.43;1.93;;;1.80;99.90;;;;;;5011137;28;20926;-63
2021/01/24 02:44:43;;;;;;;1.87;1.30;;;1.80;99.90;;;;;;5013421;28;20196;-65
2021/01/24 02:47:10;;;;;;;3.27;1.30;;;1.70;99.90;;;;;;5014348;28;20192;-64
2021/01/24 02:49:41;;;;;;;2.40;1.10;;;1.60;99.90;;;;;;5010412;28;20232;-67
2021/01/24 02:52:09;;;;;;;2.10;0.80;;;1.60;99.90;;;;;;5019486;28;20912;-71
2021/01/24 02:54:37;;;;;;;7.80;0.90;;;1.50;99.90;;;;;;5016051;28;20214;-71
2021/01/24 02:57:04;;;;;;;0.97;0.60;;;1.50;99.90;;;;;;5017396;28;20206;-71
2021/01/24 02:59:32;;;;;;;0.73;0.67;;;1.50;99.90;;;;;;5015367;28;20584;-66
2021/01/24 03:01:58;;;;;;;2.77;0.90;;;1.60;99.90;;;;;;5016082;28;20201;-70
2021/01/24 03:04:25;;;;;;;1.57;1.30;;;1.80;99.90;;;;;;5010791;28;20251;-66
2021/01/24 03:06:52;;;;;;;2.17;1.23;;;1.90;99.90;;;;;;5011440;28;20201;-68
2021/01/24 03:09:19;;;;;;;3.83;1.20;;;2.00;99.90;;;;;;5011715;28;20581;-70
2021/01/24 03:11:48;;;;;;;9.80;1.80;;;2.10;99.90;;;;;;5011072;28;20304;-68
2021/01/24 03:14:19;;;;;;;4.43;0.77;;;2.10;99.90;;;;;;5017006;28;20201;-71
2021/01/24 03:16:49;;;;;;;4.43;0.90;;;2.20;99.90;;;;;;5032381;28;20192;-66
2021/01/24 03:19:19;;;;;;;1.13;0.87;;;2.30;99.90;;;;;;5030478;28;20554;-70
2021/01/24 03:21:46;;;;;;;0.63;0.60;;;2.30;99.90;;;;;;5031950;28;20287;-70
2021/01/24 03:24:17;;;;;;;2.00;0.70;;;2.30;99.90;;;;;;5033181;28;20567;-70
2021/01/24 03:26:44;;;;;;;1.67;0.80;;;2.30;99.90;;;;;;5034008;28;20258;-70
2021/01/24 03:29:11;;;;;;;1.43;0.50;;;2.30;99.90;;;;;;5031974;28;20228;-69
2021/01/24 03:31:40;;;;;;;1.50;0.70;;;2.20;99.90;;;;;;5032034;28;20207;-68
2021/01/24 03:34:14;;;;;;;0.50;0.50;;;2.20;99.90;;;;;;5033730;28;20200;-71
2021/01/24 03:36:40;;;;;;;1.43;0.90;;;2.10;99.90;;;;;;5031822;28;20200;-68
2021/01/24 03:39:07;;;;;;;1.97;0.80;;;2.10;99.90;;;;;;5033666;28;20204;-70
2021/01/24 03:41:34;;;;;;;2.43;1.00;;;2.10;99.90;;;;;;5029557;28;20592;-65
2021/01/24 03:44:00;;;;;;;2.70;1.17;;;2.20;99.90;;;;;;5033357;28;20207;-70
2021/01/24 03:46:27;;;;;;;5.03;1.00;;;2.20;99.90;;;;;;5030947;28;20243;-70
2021/01/24 03:48:53;;;;;;;4.13;1.50;;;2.20;99.90;;;;;;5031054;28;20239;-67
2021/01/24 03:51:20;;;;;;;2.80;0.80;;;2.20;99.90;;;;;;5033270;28;20204;-63
2021/01/24 03:53:46;;;;;;;2.63;0.70;;;2.10;99.90;;;;;;5034368;28;20196;-66
2021/01/24 03:56:13;;;;;;;0.77;0.70;;;2.00;99.90;;;;;;5028457;28;20203;-66
2021/01/24 03:58:41;;;;;;;1.20;1.00;;;1.90;99.90;;;;;;5033328;28;20208;-64
2021/01/24 04:01:07;;;;;;;1.27;0.83;;;1.80;99.90;;;;;;5031776;28;20232;-62
2021/01/24 04:03:34;;;;;;;2.67;1.40;;;1.80;99.90;;;;;;5034196;28;20196;-61
2021/01/24 04:06:00;;;;;;;3.93;1.97;;;1.70;99.90;;;;;;5031543;28;20203;-65
2021/01/24 04:08:27;;;;;;;2.10;1.10;;;1.70;99.90;;;;;;5029572;28;20688;-62
2021/01/24 04:10:53;;;;;;;4.47;1.60;;;1.80;99.90;;;;;;5031471;28;20598;-64
2021/01/24 04:13:20;;;;;;;3.57;1.40;;;1.90;99.90;;;;;;5031642;28;20219;-67
2021/01/24 04:15:47;;;;;;;3.30;1.73;;;1.90;99.90;;;;;;5029798;28;20591;-64
2021/01/24 04:18:14;;;;;;;2.70;1.30;;;1.90;99.90;;;;;;5031071;28;20279;-62
2021/01/24 04:20:40;;;;;;;2.23;1.23;;;1.80;99.90;;;;;;5032157;28;20231;-65
2021/01/24 04:23:07;;;;;;;2.90;1.23;;;1.70;99.90;;;;;;5031598;28;20208;-62
2021/01/24 04:25:33;;;;;;;6.60;1.60;;;1.50;99.90;;;;;;5031377;28;20208;-61
2021/01/24 04:28:00;;;;;;;1.47;1.20;;;1.40;99.90;;;;;;5030397;28;20201;-68
2021/01/24 04:30:26;;;;;;;3.07;1.30;;;1.30;99.90;;;;;;5031481;28;20670;-65
2021/01/24 04:32:54;;;;;;;4.17;1.50;;;1.40;99.90;;;;;;5031517;28;20196;-65
2021/01/24 04:35:22;;;;;;;2.70;1.20;;;1.40;99.90;;;;;;5031258;28;20680;-63
2021/01/24 04:37:48;;;;;;;2.17;1.30;;;1.50;99.90;;;;;;5032097;28;20254;-66
2021/01/24 04:40:15;;;;;;;5.50;1.80;;;1.50;99.90;;;;;;5032606;28;20200;-63
2021/01/24 04:42:42;;;;;;;3.17;1.70;;;1.40;99.90;;;;;;5032289;28;20196;-65
2021/01/24 04:45:11;;;;;;;9.47;3.30;;;1.40;99.90;;;;;;5031131;28;20197;-66
2021/01/24 04:47:39;;;;;;;14.50;5.67;;;1.40;99.90;;;;;;5030801;28;20208;-65
2021/01/24 04:50:08;;;;;;;14.03;6.60;;;1.50;99.90;;;;;;5030173;28;20273;-64
2021/01/24 04:52:34;;;;;;;18.40;8.07;;;1.50;99.90;;;;;;5032001;28;20204;-67
2021/01/24 04:55:03;;;;;;;18.60;9.07;;;1.60;99.90;;;;;;5031015;28;20203;-66
2021/01/24 04:57:29;;;;;;;19.47;10.13;;;1.60;99.90;;;;;;5030846;28;20678;-63
2021/01/24 04:59:56;;;;;;;21.40;12.47;;;1.50;99.90;;;;;;5030606;28;20201;-68
2021/01/24 05:02:23;;;;;;;21.60;12.23;;;1.50;99.90;;;;;;5028053;28;20200;-64
2021/01/24 05:04:50;;;;;;;25.13;13.53;;;1.40;99.90;;;;;;5024832;28;20199;-70
2021/01/24 05:07:18;;;;;;;28.93;14.10;;;1.30;99.90;;;;;;5031938;28;20212;-63
2021/01/24 05:09:46;;;;;;;25.87;13.53;;;1.30;99.90;;;;;;5029160;28;20220;-72
2021/01/24 05:12:13;;;;;;;29.67;14.23;;;1.30;99.90;;;;;;5034353;28;20277;-71
2021/01/24 05:14:40;;;;;;;34.00;14.00;;;1.20;99.90;;;;;;5028672;28;20236;-69
2021/01/24 05:17:07;;;;;;;26.60;13.10;;;1.10;99.90;;;;;;5029297;28;20231;-69
2021/01/24 05:19:35;;;;;;;20.77;11.57;;;1.10;99.90;;;;;;5030550;28;20201;-70
2021/01/24 05:22:04;;;;;;;29.10;13.30;;;1.00;99.90;;;;;;5030104;28;20200;-71
2021/01/24 05:24:32;;;;;;;24.60;12.57;;;1.00;99.90;;;;;;5027301;28;20193;-71
2021/01/24 05:27:08;;;;;;;24.13;11.53;;;0.90;99.90;;;;;;5025464;28;20204;-71
2021/01/24 05:29:37;;;;;;;25.20;11.70;;;0.90;99.90;;;;;;5027942;28;20258;-71
2021/01/24 05:32:05;;;;;;;23.47;12.00;;;0.80;99.90;;;;;;5030754;28;20610;-69
2021/01/24 05:34:32;;;;;;;27.63;11.37;;;0.80;99.90;;;;;;5025230;28;20205;-68
2021/01/24 05:37:00;;;;;;;24.93;12.50;;;0.70;99.90;;;;;;5026125;28;20204;-70
2021/01/24 05:39:28;;;;;;;20.20;11.40;;;0.70;99.90;;;;;;5028814;28;20200;-68
2021/01/24 05:41:57;;;;;;;19.83;11.50;;;0.70;99.90;;;;;;5028919;28;20207;-65
2021/01/24 05:44:25;;;;;;;24.20;12.07;;;0.70;99.90;;;;;;5031540;28;20207;-65
2021/01/24 05:46:55;;;;;;;27.70;11.53;;;0.70;99.90;;;;;;5034983;28;20545;-71
2021/01/24 05:49:23;;;;;;;22.27;11.07;;;0.70;99.90;;;;;;5029388;28;20219;-69
2021/01/24 05:52:00;;;;;;;22.10;10.40;;;0.80;99.90;;;;;;5030524;28;20246;-65
2021/01/24 05:54:43;;;;;;;26.57;10.90;;;0.80;99.90;;;;;;5030802;28;20262;-65
2021/01/24 05:57:11;;;;;;;18.97;9.63;;;0.80;99.90;;;;;;5031073;28;20196;-69
2021/01/24 05:59:52;;;;;;;22.67;10.27;;;0.80;99.90;;;;;;5031738;28;20207;-70
2021/01/24 06:02:20;;;;;;;17.80;8.27;;;0.80;99.90;;;;;;5032405;28;20200;-69
2021/01/24 06:04:48;;;;;;;27.17;9.50;;;0.80;99.90;;;;;;5031655;28;20239;-69
2021/01/24 06:07:15;;;;;;;19.00;8.93;;;0.80;99.90;;;;;;5032326;28;20201;-70
2021/01/24 06:09:42;;;;;;;17.30;8.43;;;0.70;99.90;;;;;;5031184;28;20278;-64
2021/01/24 06:12:11;;;;;;;22.77;8.50;;;0.70;99.90;;;;;;5028889;28;20203;-69
2021/01/24 06:14:39;;;;;;;16.83;7.23;;;0.70;99.90;;;;;;5024016;28;20281;-62
2021/01/24 06:17:12;;;;;;;19.97;8.43;;;0.70;99.90;;;;;;5026507;28;20815;-64
2021/01/24 06:19:42;;;;;;;21.03;7.73;;;0.60;99.90;;;;;;5030086;28;20196;-65
2021/01/24 06:22:15;;;;;;;17.83;7.33;;;0.60;99.90;;;;;;5024697;28;20569;-68
2021/01/24 06:24:47;;;;;;;14.63;6.67;;;0.50;99.90;;;;;;5028317;28;20196;-67
2021/01/24 06:27:20;;;;;;;16.47;6.83;;;0.50;99.90;;;;;;5029711;28;20205;-68
2021/01/24 06:29:50;;;;;;;15.43;6.80;;;0.40;99.90;;;;;;5015191;28;20216;-69
2021/01/24 06:32:27;;;;;;;14.63;7.43;;;0.40;99.90;;;;;;5029520;28;20254;-65
2021/01/24 06:34:55;;;;;;;18.03;6.67;;;0.40;99.90;;;;;;5025582;28;20203;-67
2021/01/24 06:37:27;;;;;;;14.10;6.80;;;0.40;99.90;;;;;;5030865;28;20219;-66
2021/01/24 06:39:55;;;;;;;17.40;7.80;;;0.40;99.90;;;;;;5032775;28;20196;-68
2021/01/24 06:42:37;;;;;;;19.07;6.90;;;0.40;99.90;;;;;;5033164;28;20654;-63
2021/01/24 06:45:05;;;;;;;15.07;6.63;;;0.50;99.90;;;;;;5032725;28;20585;-66
2021/01/24 06:47:40;;;;;;;16.30;7.43;;;0.50;99.90;;;;;;5033534;28;20205;-66
2021/01/24 06:50:36;;;;;;;18.50;7.43;;;0.50;99.90;;;;;;5017714;28;20226;-67
2021/01/24 06:53:07;;;;;;;17.83;7.50;;;0.50;99.90;;;;;;5029354;28;20246;-66
2021/01/24 06:55:34;;;;;;;17.13;8.30;;;0.40;99.90;;;;;;5027187;28;20188;-67
2021/01/24 06:58:24;;;;;;;14.93;7.03;;;0.40;99.90;;;;;;5034394;28;20196;-65
2021/01/24 07:00:51;;;;;;;22.63;7.87;;;0.40;99.90;;;;;;5030697;28;20565;-63
2021/01/24 07:03:19;;;;;;;20.43;9.23;;;0.40;99.90;;;;;;5033230;28;20252;-66
2021/01/24 07:05:46;;;;;;;20.23;8.73;;;0.30;99.90;;;;;;5029612;28;20200;-63
2021/01/24 07:08:31;;;;;;;18.50;8.33;;;0.30;99.90;;;;;;5033041;28;20205;-64
2021/01/24 07:10:57;;;;;;;26.70;8.93;;;0.20;99.90;;;;;;5031727;28;20200;-64
2021/01/24 07:13:36;;;;;;;23.23;9.07;;;0.20;99.90;;;;;;5029888;28;20203;-63
2021/01/24 07:16:06;;;;;;;17.07;8.67;;;0.20;99.90;;;;;;5029809;28;20310;-67
2021/01/24 07:18:40;;;;;;;23.03;9.80;;;0.10;99.90;;;;;;5030478;28;20291;-61
2021/01/24 07:21:07;;;;;;;22.47;9.20;;;0.10;99.90;;;;;;5032202;28;20245;-66
2021/01/24 07:23:34;;;;;;;23.03;9.57;;;0.10;99.90;;;;;;5031711;28;20209;-68
2021/01/24 07:26:02;;;;;;;18.97;8.40;;;0.00;99.90;;;;;;5031568;28;20254;-65
2021/01/24 07:28:30;;;;;;;22.17;9.07;;;0.00;99.90;;;;;;5032756;28;20207;-68
2021/01/24 07:31:04;;;;;;;20.50;10.47;;;-0.10;99.90;;;;;;5026448;28;20204;-70
2021/01/24 07:33:31;;;;;;;25.20;10.20;;;-0.20;99.90;;;;;;5024906;28;20207;-70
2021/01/24 07:36:00;;;;;;;18.00;9.30;;;-0.20;99.90;;;;;;5031625;28;20215;-69
2021/01/24 07:38:27;;;;;;;21.00;9.80;;;-0.30;99.90;;;;;;5034543;28;20211;-70
2021/01/24 07:40:55;;;;;;;20.03;9.37;;;-0.30;99.90;;;;;;5035924;28;20208;-70
2021/01/24 07:43:23;;;;;;;18.93;8.70;;;-0.40;99.90;;;;;;5032174;28;20243;-70
2021/01/24 07:45:49;;;;;;;12.93;6.97;;;-0.40;99.90;;;;;;5030404;28;20196;-70
2021/01/24 07:48:17;;;;;;;18.07;7.83;;;-0.50;99.90;;;;;;5031509;28;20200;-71
2021/01/24 07:50:43;;;;;;;19.17;8.60;;;-0.50;99.90;;;;;;5025878;28;20232;-69
2021/01/24 07:53:10;;;;;;;20.40;8.37;;;-0.50;99.90;;;;;;5032365;28;20204;-69
2021/01/24 07:55:37;;;;;;;18.23;8.00;;;-0.50;99.90;;;;;;5024016;28;20200;-68
2021/01/24 07:58:05;;;;;;;21.17;8.03;;;-0.40;99.90;;;;;;5034281;28;20620;-70
2021/01/24 08:00:34;;;;;;;20.10;8.43;;;-0.30;99.90;;;;;;5028224;28;20239;-70
2021/01/24 08:03:01;;;;;;;22.50;9.03;;;-0.20;99.90;;;;;;5030755;28;20205;-68
2021/01/24 08:05:31;;;;;;;22.57;9.40;;;-0.10;99.90;;;;;;5032094;28;20208;-70
2021/01/24 08:07:57;;;;;;;20.53;9.27;;;0.00;99.90;;;;;;5032148;28;20241;-68
2021/01/24 08:10:29;;;;;;;15.93;8.83;;;0.10;99.90;;;;;;5032828;28;20216;-65
2021/01/24 08:12:56;;;;;;;18.20;9.10;;;0.20;99.90;;;;;;5032690;28;20197;-69
2021/01/24 08:15:23;;;;;;;20.33;9.70;;;0.30;99.90;;;;;;5029692;28;20278;-64
2021/01/24 08:17:50;;;;;;;20.53;9.07;;;0.30;99.90;;;;;;5030549;28;20204;-70
2021/01/24 08:20:18;;;;;;;25.10;10.03;;;0.40;99.90;;;;;;5031845;28;20207;-69
2021/01/24 08:22:46;;;;;;;22.03;10.50;;;0.50;99.90;;;;;;5032406;28;20208;-63
2021/01/24 08:25:13;;;;;;;18.20;10.07;;;0.50;99.90;;;;;;5030987;28;20207;-67
2021/01/24 08:27:40;;;;;;;20.97;10.50;;;0.70;99.90;;;;;;5034492;28;20196;-62
2021/01/24 08:30:08;;;;;;;23.67;10.93;;;0.80;99.90;;;;;;5033711;28;20224;-68
2021/01/24 08:32:34;;;;;;;22.37;12.13;;;1.00;99.90;;;;;;5032335;28;20254;-63
2021/01/24 08:35:01;;;;;;;20.57;12.03;;;1.30;99.90;;;;;;5030834;28;20251;-64
2021/01/24 08:37:28;;;;;;;26.40;12.87;;;1.50;99.90;;;;;;5031311;28;20287;-63
2021/01/24 08:39:56;;;;;;;28.47;13.40;;;1.70;99.90;;;;;;5029700;28;20234;-60
2021/01/24 08:42:22;;;;;;;28.00;13.70;;;1.90;99.90;;;;;;5032779;28;20238;-64
2021/01/24 08:44:58;;;;;;;24.40;12.97;;;2.10;99.90;;;;;;5028237;28;20557;-64
2021/01/24 08:47:25;;;;;;;25.60;13.57;;;2.40;99.90;;;;;;5032160;28;20200;-64
2021/01/24 08:50:04;;;;;;;26.47;13.47;;;2.70;99.90;;;;;;5031027;28;20228;-67
2021/01/24 08:52:31;;;;;;;28.17;14.37;;;3.10;99.90;;;;;;5028901;28;20196;-68
2021/01/24 08:55:02;;;;;;;30.50;17.10;;;3.20;99.90;;;;;;5029571;28;20213;-60
2021/01/24 08:57:33;;;;;;;28.93;15.97;;;3.30;99.90;;;;;;5030735;28;20664;-60
2021/01/24 09:00:01;;;;;;;25.50;14.63;;;3.40;99.90;;;;;;5030704;28;20200;-64
2021/01/24 09:02:32;;;;;;;24.63;15.87;;;3.60;99.90;;;;;;5033071;28;20350;-63
2021/01/24 09:05:00;;;;;;;25.97;13.30;;;3.90;99.90;;;;;;5027702;28;20192;-61
2021/01/24 09:07:36;;;;;;;24.70;13.33;;;4.40;99.90;;;;;;5029372;28;20211;-65
2021/01/24 09:10:15;;;;;;;19.63;11.90;;;4.80;99.90;;;;;;5032348;28;20212;-64
2021/01/24 09:12:43;;;;;;;23.43;12.53;;;5.00;99.90;;;;;;5030050;28;20254;-63
2021/01/24 09:15:10;;;;;;;21.57;11.30;;;5.00;99.90;;;;;;5030970;28;20319;-62
2021/01/24 09:17:36;;;;;;;20.07;10.73;;;5.00;99.90;;;;;;5027746;28;20641;-67
2021/01/24 09:20:04;;;;;;;17.40;10.83;;;5.30;99.90;;;;;;5030666;28;20199;-63
2021/01/24 09:22:31;;;;;;;16.20;8.93;;;5.60;99.90;;;;;;5027634;28;20208;-64
2021/01/24 09:24:57;;;;;;;14.80;7.60;;;5.60;99.90;;;;;;5030064;28;20222;-64
2021/01/24 09:27:25;;;;;;;8.30;5.77;;;5.60;99.90;;;;;;5028736;28;20196;-67
2021/01/24 09:29:51;;;;;;;8.17;6.57;;;5.60;99.90;;;;;;5027276;28;20219;-63
2021/01/24 09:32:18;;;;;;;8.17;6.47;;;5.70;99.90;;;;;;5032867;28;20208;-64
2021/01/24 09:34:44;;;;;;;7.60;5.47;;;5.80;99.90;;;;;;5031611;28;20204;-66
2021/01/24 09:37:11;;;;;;;8.60;5.27;;;5.80;99.90;;;;;;5029271;28;20649;-63
2021/01/24 09:39:37;;;;;;;8.57;5.47;;;5.70;99.90;;;;;;5031225;28;20199;-65
2021/01/24 09:42:04;;;;;;;12.83;9.83;;;5.60;99.90;;;;;;5027554;28;20650;-67
2021/01/24 09:44:32;;;;;;;6.93;5.77;;;5.50;99.90;;;;;;5029472;28;20208;-66
2021/01/24 09:46:58;;;;;;;7.53;5.57;;;5.50;99.90;;;;;;5029916;28;20202;-61
2021/01/24 09:49:25;;;;;;;11.63;5.70;;;5.30;99.90;;;;;;5030952;28;20228;-66
2021/01/24 09:51:52;;;;;;;7.83;5.90;;;5.20;99.90;;;;;;5031214;28;20602;-66
2021/01/24 09:54:18;;;;;;;8.10;5.73;;;5.10;99.90;;;;;;5031012;28;20200;-68
2021/01/24 09:56:45;;;;;;;7.40;5.63;;;5.00;99.90;;;;;;5030259;28;20531;-66
2021/01/24 09:59:13;;;;;;;8.60;6.87;;;5.20;99.90;;;;;;5031402;28;20201;-68
2021/01/24 10:01:41;;;;;;;12.07;6.90;;;5.10;99.90;;;;;;5031117;28;20273;-70
2021/01/24 10:04:07;;;;;;;9.13;7.13;;;5.10;99.90;;;;;;5030268;28;20468;-66
2021/01/24 10:06:34;;;;;;;10.17;7.63;;;5.20;99.90;;;;;;5027301;28;20204;-69
2021/01/24 10:09:01;;;;;;;8.87;7.13;;;5.20;99.90;;;;;;5031136;28;21805;-61
2021/01/24 10:11:28;;;;;;;10.43;6.87;;;5.10;99.90;;;;;;5032177;28;20242;-68
2021/01/24 10:13:54;;;;;;;9.93;6.70;;;5.10;99.90;;;;;;5041712;28;20199;-67
2021/01/24 10:16:21;;;;;;;9.10;6.30;;;5.20;99.90;;;;;;5033231;28;20293;-62
2021/01/24 10:18:48;;;;;;;11.03;7.10;;;5.20;99.90;;;;;;5033441;28;20204;-62
2021/01/24 10:21:15;;;;;;;8.77;7.00;;;5.30;99.90;;;;;;5033507;28;20208;-68
2021/01/24 10:23:41;;;;;;;8.90;6.73;;;5.20;99.90;;;;;;5034891;28;20223;-70
2021/01/24 10:26:08;;;;;;;7.67;6.63;;;5.20;99.90;;;;;;5030772;28;20208;-68
2021/01/24 10:28:35;;;;;;;11.80;6.57;;;5.30;99.90;;;;;;5028539;28;20200;-66
2021/01/24 10:31:02;;;;;;;8.63;6.30;;;5.30;99.90;;;;;;5034579;28;20694;-65
2021/01/24 10:33:29;;;;;;;7.53;6.07;;;5.20;99.90;;;;;;5035866;28;20196;-62
2021/01/24 10:35:56;;;;;;;10.07;6.80;;;5.20;99.90;;;;;;5033068;28;20204;-64
2021/01/24 10:38:23;;;;;;;12.53;7.40;;;5.10;99.90;;;;;;5034492;28;20203;-65
2021/01/24 10:40:49;;;;;;;10.47;6.70;;;5.20;99.90;;;;;;5032269;28;20653;-60
2021/01/24 10:43:16;;;;;;;10.30;7.53;;;5.10;99.90;;;;;;5033493;28;20201;-67
2021/01/24 10:45:43;;;;;;;11.17;7.93;;;5.00;99.90;;;;;;5032982;28;20201;-66
2021/01/24 10:48:10;;;;;;;9.03;7.87;;;5.00;99.90;;;;;;5029799;28;20208;-64
2021/01/24 10:50:38;;;;;;;10.43;7.73;;;4.80;99.90;;;;;;5034797;28;20246;-61
2021/01/24 10:53:06;;;;;;;9.37;7.37;;;4.70;99.90;;;;;;5027945;28;20205;-61
2021/01/24 10:55:33;;;;;;;10.60;8.33;;;4.60;99.90;;;;;;5031771;28;20262;-63
2021/01/24 10:58:00;;;;;;;12.97;8.60;;;4.50;99.90;;;;;;5028853;28;20657;-62
2021/01/24 11:00:27;;;;;;;9.57;7.53;;;4.60;99.90;;;;;;5030742;28;20228;-62
2021/01/24 11:02:54;;;;;;;9.70;8.10;;;4.60;99.90;;;;;;5028802;28;20262;-63
2021/01/24 11:05:20;;;;;;;10.93;8.33;;;4.70;99.90;;;;;;5032658;28;20201;-63
2021/01/24 11:07:47;;;;;;;10.50;7.80;;;4.70;99.90;;;;;;5031253;28;20258;-66
2021/01/24 11:10:14;;;;;;;11.13;8.90;;;4.70;99.90;;;;;;5029290;28;20220;-66
2021/01/24 11:12:41;;;;;;;11.83;8.30;;;4.70;99.90;;;;;;5030356;28;20265;-64
2021/01/24 11:15:09;;;;;;;9.60;7.87;;;4.80;99.90;;;;;;5028072;28;20318;-66
2021/01/24 11:17:37;;;;;;;8.83;7.77;;;4.90;99.90;;;;;;5026317;28;20201;-65
2021/01/24 11:20:06;;;;;;;9.10;7.50;;;4.90;99.90;;;;;;5028636;28;20673;-62
2021/01/24 11:22:32;;;;;;;14.13;7.83;;;4.90;99.90;;;;;;5025708;28;20213;-65
2021/01/24 11:24:58;;;;;;;7.97;7.17;;;4.80;99.90;;;;;;5030201;28;20193;-67
2021/01/24 11:27:27;;;;;;;8.67;7.60;;;4.90;99.90;;;;;;5026241;28;20211;-64
2021/01/24 11:29:54;;;;;;;8.73;7.37;;;4.80;99.90;;;;;;5030739;28;20232;-62
2021/01/24 11:32:20;;;;;;;8.40;7.07;;;4.70;99.90;;;;;;5030193;28;20209;-65
2021/01/24 11:34:47;;;;;;;9.80;7.53;;;4.80;99.90;;;;;;5031717;28;20216;-67
2021/01/24 11:37:13;;;;;;;10.83;8.10;;;4.80;99.90;;;;;;5029189;28;20653;-65
2021/01/24 11:39:39;;;;;;;14.00;8.60;;;4.90;99.90;;;;;;5029488;28;20232;-67
2021/01/24 11:42:06;;;;;;;11.70;7.93;;;5.10;99.90;;;;;;5031150;28;20200;-64
2021/01/24 11:44:34;;;;;;;9.47;7.10;;;5.30;99.90;;;;;;5029905;28;20204;-65
2021/01/24 11:47:00;;;;;;;10.37;7.93;;;5.30;99.90;;;;;;5027891;28;20211;-62
2021/01/24 11:49:27;;;;;;;10.80;7.73;;;5.40;99.90;;;;;;5031170;28;20220;-66
2021/01/24 11:51:53;;;;;;;11.70;7.57;;;5.40;99.90;;;;;;5033162;28;20231;-66
2021/01/24 11:54:19;;;;;;;11.03;8.40;;;5.20;99.90;;;;;;5033027;28;20713;-67
2021/01/24 11:56:46;;;;;;;10.00;7.80;;;5.10;99.90;;;;;;5032492;28;20203;-63
2021/01/24 11:59:12;;;;;;;11.17;7.70;;;5.10;99.90;;;;;;5034073;28;20224;-64
2021/01/24 12:01:40;;;;;;;9.17;7.43;;;5.10;99.90;;;;;;5032786;28;20197;-60
2021/01/24 12:04:06;;;;;;;10.30;8.03;;;5.20;99.90;;;;;;5034300;28;20207;-64
2021/01/24 12:06:33;;;;;;;9.93;7.67;;;5.20;99.90;;;;;;5032673;28;20270;-63
2021/01/24 12:08:59;;;;;;;9.07;7.50;;;5.20;99.90;;;;;;5032129;28;20208;-69
2021/01/24 12:11:26;;;;;;;12.17;7.57;;;5.20;99.90;;;;;;5033407;28;20211;-69
2021/01/24 12:13:52;;;;;;;10.53;7.57;;;5.20;99.90;;;;;;5031795;28;20205;-69
2021/01/24 12:16:19;;;;;;;10.53;8.13;;;5.10;99.90;;;;;;5031800;28;20254;-68
2021/01/24 12:18:46;;;;;;;11.10;8.00;;;5.00;99.90;;;;;;5031629;28;20716;-69
2021/01/24 12:21:13;;;;;;;12.27;8.93;;;5.00;99.90;;;;;;5033407;28;20208;-68
2021/01/24 12:23:39;;;;;;;11.57;9.67;;;4.90;99.90;;;;;;5030403;28;20212;-69
2021/01/24 12:26:06;;;;;;;14.50;9.20;;;4.80;99.90;;;;;;5031014;28;20593;-68
2021/01/24 12:28:32;;;;;;;15.27;9.97;;;4.70;99.90;;;;;;5043384;28;20230;-69
2021/01/24 12:30:59;;;;;;;16.20;10.83;;;4.60;99.90;;;;;;5032809;28;20231;-67
2021/01/24 12:33:25;;;;;;;12.70;9.83;;;4.50;99.90;;;;;;5033619;28;20646;-68
2021/01/24 12:35:53;;;;;;;16.83;10.13;;;4.40;99.90;;;;;;5031484;28;20196;-68
2021/01/24 12:38:19;;;;;;;14.03;10.10;;;4.40;99.90;;;;;;5029847;28;20193;-66
2021/01/24 12:40:46;;;;;;;15.77;9.83;;;4.30;99.90;;;;;;5030587;28;20200;-67
2021/01/24 12:43:12;;;;;;;16.07;8.93;;;4.30;99.90;;;;;;5033360;28;20204;-63
2021/01/24 12:45:39;;;;;;;14.93;10.33;;;4.30;99.90;;;;;;5028323;28;21144;-68
2021/01/24 12:48:06;;;;;;;12.03;8.50;;;4.20;99.90;;;;;;5028169;28;20658;-70
2021/01/24 12:50:32;;;;;;;13.40;10.30;;;4.20;99.90;;;;;;5031756;28;20251;-69
2021/01/24 12:53:00;;;;;;;16.40;9.30;;;4.20;99.90;;;;;;5033546;28;20200;-68